sensor_id;sensor_type;location;lat;lon;timestamp;P1;durP1;ratioP1;P2;durP2;ratioP2
73959;SDS011;62316;48.920;2.342;2023-06-26T00:01:14;6.25;;;5.75;;
73959;SDS011;62316;48.920;2.342;2023-06-26T00:03:39;7.00;;;3.50;;
73959;SDS011;62316;48.920;2.342;2023-06-26T00:06:04;4.50;;;4.50;;
73959;SDS011;62316;48.920;2.342;2023-06-26T00:08:30;5.00;;;5.00;;
73959;SDS011;62316;48.920;2.342;2023-06-26T00:10:55;5.75;;;4.50;;
73959;SDS011;62316;48.920;2.342;2023-06-26T00:13:21;4.25;;;4.00;;
73959;SDS011;62316;48.920;2.342;2023-06-26T00:15:47;6.00;;;6.00;;
73959;SDS011;62316;48.920;2.342;2023-06-26T00:18:13;5.67;;;5.67;;
73959;SDS011;62316;48.920;2.342;2023-06-26T00:20:38;8.33;;;5.67;;
73959;SDS011;62316;48.920;2.342;2023-06-26T00:23:03;3.00;;;3.00;;
73959;SDS011;62316;48.920;2.342;2023-06-26T00:25:32;3.50;;;3.00;;
73959;SDS011;62316;48.920;2.342;2023-06-26T00:27:59;4.00;;;4.00;;
73959;SDS011;62316;48.920;2.342;2023-06-26T00:30:24;3.50;;;2.50;;
73959;SDS011;62316;48.920;2.342;2023-06-26T00:32:50;6.00;;;6.00;;
73959;SDS011;62316;48.920;2.342;2023-06-26T00:35:16;3.67;;;3.00;;
73959;SDS011;62316;48.920;2.342;2023-06-26T00:37:41;5.00;;;5.00;;
73959;SDS011;62316;48.920;2.342;2023-06-26T00:40:07;9.00;;;5.00;;
73959;SDS011;62316;48.920;2.342;2023-06-26T00:42:33;6.00;;;4.50;;
73959;SDS011;62316;48.920;2.342;2023-06-26T00:44:58;6.33;;;5.33;;
73959;SDS011;62316;48.920;2.342;2023-06-26T00:47:24;5.25;;;4.25;;
73959;SDS011;62316;48.920;2.342;2023-06-26T00:49:56;6.00;;;5.75;;
73959;SDS011;62316;48.920;2.342;2023-06-26T00:52:22;6.50;;;5.00;;
73959;SDS011;62316;48.920;2.342;2023-06-26T00:54:48;6.25;;;5.50;;
73959;SDS011;62316;48.920;2.342;2023-06-26T00:57:14;7.67;;;5.33;;
73959;SDS011;62316;48.920;2.342;2023-06-26T00:59:39;4.33;;;3.00;;
73959;SDS011;62316;48.920;2.342;2023-06-26T01:02:05;4.25;;;4.00;;
73959;SDS011;62316;48.920;2.342;2023-06-26T01:04:31;7.50;;;7.50;;
73959;SDS011;62316;48.920;2.342;2023-06-26T01:06:57;6.00;;;6.00;;
73959;SDS011;62316;48.920;2.342;2023-06-26T01:09:24;7.25;;;5.75;;
73959;SDS011;62316;48.920;2.342;2023-06-26T01:11:50;5.00;;;3.75;;
73959;SDS011;62316;48.920;2.342;2023-06-26T01:14:16;4.50;;;3.00;;
73959;SDS011;62316;48.920;2.342;2023-06-26T01:16:41;7.75;;;6.25;;
73959;SDS011;62316;48.920;2.342;2023-06-26T01:19:13;5.00;;;5.00;;
73959;SDS011;62316;48.920;2.342;2023-06-26T01:21:51;4.00;;;3.67;;
73959;SDS011;62316;48.920;2.342;2023-06-26T01:24:22;4.50;;;4.25;;
73959;SDS011;62316;48.920;2.342;2023-06-26T01:26:52;5.25;;;5.25;;
73959;SDS011;62316;48.920;2.342;2023-06-26T01:29:18;5.50;;;5.50;;
73959;SDS011;62316;48.920;2.342;2023-06-26T01:31:44;6.50;;;6.50;;
73959;SDS011;62316;48.920;2.342;2023-06-26T01:34:12;4.67;;;4.33;;
73959;SDS011;62316;48.920;2.342;2023-06-26T01:36:39;8.25;;;7.25;;
73959;SDS011;62316;48.920;2.342;2023-06-26T01:39:05;6.50;;;6.50;;
73959;SDS011;62316;48.920;2.342;2023-06-26T01:41:30;5.67;;;5.00;;
73959;SDS011;62316;48.920;2.342;2023-06-26T01:46:42;6.00;;;5.00;;
73959;SDS011;62316;48.920;2.342;2023-06-26T01:49:31;9.00;;;8.00;;
73959;SDS011;62316;48.920;2.342;2023-06-26T01:54:54;9.25;;;7.75;;
73959;SDS011;62316;48.920;2.342;2023-06-26T01:57:23;8.25;;;8.25;;
73959;SDS011;62316;48.920;2.342;2023-06-26T01:59:51;7.25;;;7.25;;
73959;SDS011;62316;48.920;2.342;2023-06-26T02:02:18;6.00;;;5.75;;
73959;SDS011;62316;48.920;2.342;2023-06-26T02:04:43;6.25;;;6.25;;
73959;SDS011;62316;48.920;2.342;2023-06-26T02:07:09;10.50;;;7.00;;
73959;SDS011;62316;48.920;2.342;2023-06-26T02:09:34;6.33;;;6.33;;
73959;SDS011;62316;48.920;2.342;2023-06-26T02:12:06;6.25;;;6.25;;
73959;SDS011;62316;48.920;2.342;2023-06-26T02:14:32;9.33;;;7.00;;
73959;SDS011;62316;48.920;2.342;2023-06-26T02:16:58;8.50;;;7.00;;
73959;SDS011;62316;48.920;2.342;2023-06-26T02:19:25;5.00;;;5.00;;
73959;SDS011;62316;48.920;2.342;2023-06-26T02:21:52;1.00;;;1.00;;
73959;SDS011;62316;48.920;2.342;2023-06-26T02:24:19;6.50;;;5.25;;
73959;SDS011;62316;48.920;2.342;2023-06-26T02:26:45;6.00;;;4.00;;
73959;SDS011;62316;48.920;2.342;2023-06-26T02:29:11;3.50;;;3.50;;
73959;SDS011;62316;48.920;2.342;2023-06-26T02:31:36;4.00;;;4.00;;
73959;SDS011;62316;48.920;2.342;2023-06-26T02:34:02;4.33;;;3.00;;
73959;SDS011;62316;48.920;2.342;2023-06-26T02:36:27;2.00;;;1.00;;
73959;SDS011;62316;48.920;2.342;2023-06-26T02:38:53;6.50;;;3.00;;
73959;SDS011;62316;48.920;2.342;2023-06-26T02:41:18;4.75;;;3.75;;
73959;SDS011;62316;48.920;2.342;2023-06-26T02:43:43;3.33;;;3.00;;
73959;SDS011;62316;48.920;2.342;2023-06-26T02:46:09;7.00;;;3.00;;
73959;SDS011;62316;48.920;2.342;2023-06-26T02:48:34;2.00;;;2.00;;
73959;SDS011;62316;48.920;2.342;2023-06-26T02:50:59;3.00;;;3.00;;
73959;SDS011;62316;48.920;2.342;2023-06-26T02:53:25;3.33;;;2.00;;
73959;SDS011;62316;48.920;2.342;2023-06-26T02:55:50;3.00;;;2.00;;
73959;SDS011;62316;48.920;2.342;2023-06-26T02:58:16;3.33;;;3.33;;
73959;SDS011;62316;48.920;2.342;2023-06-26T03:00:41;6.67;;;3.67;;
73959;SDS011;62316;48.920;2.342;2023-06-26T03:03:08;4.00;;;2.00;;
73959;SDS011;62316;48.920;2.342;2023-06-26T03:05:33;2.00;;;2.00;;
73959;SDS011;62316;48.920;2.342;2023-06-26T03:07:59;2.00;;;2.00;;
73959;SDS011;62316;48.920;2.342;2023-06-26T03:10:24;4.25;;;3.50;;
73959;SDS011;62316;48.920;2.342;2023-06-26T03:12:49;3.00;;;3.00;;
73959;SDS011;62316;48.920;2.342;2023-06-26T03:15:15;1.33;;;1.33;;
73959;SDS011;62316;48.920;2.342;2023-06-26T03:17:40;4.67;;;3.33;;
73959;SDS011;62316;48.920;2.342;2023-06-26T03:20:06;4.33;;;3.00;;
73959;SDS011;62316;48.920;2.342;2023-06-26T03:22:32;3.33;;;2.00;;
73959;SDS011;62316;48.920;2.342;2023-06-26T03:24:58;3.00;;;2.00;;
73959;SDS011;62316;48.920;2.342;2023-06-26T03:27:24;3.00;;;3.00;;
73959;SDS011;62316;48.920;2.342;2023-06-26T03:29:51;3.67;;;3.67;;
73959;SDS011;62316;48.920;2.342;2023-06-26T03:32:17;2.67;;;2.00;;
73959;SDS011;62316;48.920;2.342;2023-06-26T03:34:42;3.00;;;1.00;;
73959;SDS011;62316;48.920;2.342;2023-06-26T03:37:08;1.67;;;1.67;;
73959;SDS011;62316;48.920;2.342;2023-06-26T03:39:33;3.00;;;3.00;;
73959;SDS011;62316;48.920;2.342;2023-06-26T03:41:58;5.00;;;2.00;;
73959;SDS011;62316;48.920;2.342;2023-06-26T03:44:26;3.67;;;2.67;;
73959;SDS011;62316;48.920;2.342;2023-06-26T03:46:51;2.33;;;2.00;;
73959;SDS011;62316;48.920;2.342;2023-06-26T03:49:17;4.00;;;3.67;;
73959;SDS011;62316;48.920;2.342;2023-06-26T03:51:43;6.67;;;4.00;;
73959;SDS011;62316;48.920;2.342;2023-06-26T03:54:08;1.67;;;1.33;;
73959;SDS011;62316;48.920;2.342;2023-06-26T03:56:33;3.00;;;3.00;;
73959;SDS011;62316;48.920;2.342;2023-06-26T03:58:59;1.33;;;1.33;;
73959;SDS011;62316;48.920;2.342;2023-06-26T04:01:25;4.00;;;2.67;;
73959;SDS011;62316;48.920;2.342;2023-06-26T04:03:50;1.67;;;1.67;;
73959;SDS011;62316;48.920;2.342;2023-06-26T04:06:16;3.00;;;2.67;;
73959;SDS011;62316;48.920;2.342;2023-06-26T04:08:41;5.00;;;3.00;;
73959;SDS011;62316;48.920;2.342;2023-06-26T04:11:07;3.00;;;3.00;;
73959;SDS011;62316;48.920;2.342;2023-06-26T04:13:32;2.67;;;2.67;;
73959;SDS011;62316;48.920;2.342;2023-06-26T04:15:57;3.00;;;3.00;;
73959;SDS011;62316;48.920;2.342;2023-06-26T04:18:23;6.00;;;3.67;;
73959;SDS011;62316;48.920;2.342;2023-06-26T04:21:09;4.00;;;4.00;;
73959;SDS011;62316;48.920;2.342;2023-06-26T04:23:37;6.67;;;4.00;;
73959;SDS011;62316;48.920;2.342;2023-06-26T04:26:03;4.33;;;3.67;;
73959;SDS011;62316;48.920;2.342;2023-06-26T04:28:30;5.33;;;4.33;;
73959;SDS011;62316;48.920;2.342;2023-06-26T04:30:56;7.00;;;5.67;;
73959;SDS011;62316;48.920;2.342;2023-06-26T04:33:21;4.00;;;4.00;;
73959;SDS011;62316;48.920;2.342;2023-06-26T04:35:48;4.67;;;2.67;;
73959;SDS011;62316;48.920;2.342;2023-06-26T04:38:14;7.00;;;4.00;;
73959;SDS011;62316;48.920;2.342;2023-06-26T04:40:40;4.67;;;3.67;;
73959;SDS011;62316;48.920;2.342;2023-06-26T04:43:06;3.00;;;3.00;;
73959;SDS011;62316;48.920;2.342;2023-06-26T04:45:31;4.00;;;3.00;;
73959;SDS011;62316;48.920;2.342;2023-06-26T04:47:56;5.00;;;2.00;;
73959;SDS011;62316;48.920;2.342;2023-06-26T04:50:22;5.67;;;3.00;;
73959;SDS011;62316;48.920;2.342;2023-06-26T04:52:48;4.67;;;3.00;;
73959;SDS011;62316;48.920;2.342;2023-06-26T04:55:13;2.00;;;2.00;;
73959;SDS011;62316;48.920;2.342;2023-06-26T04:57:38;1.33;;;1.33;;
73959;SDS011;62316;48.920;2.342;2023-06-26T05:00:04;3.00;;;3.00;;
73959;SDS011;62316;48.920;2.342;2023-06-26T05:02:34;3.00;;;3.00;;
73959;SDS011;62316;48.920;2.342;2023-06-26T05:05:00;7.33;;;5.00;;
73959;SDS011;62316;48.920;2.342;2023-06-26T05:07:25;5.00;;;3.67;;
73959;SDS011;62316;48.920;2.342;2023-06-26T05:09:51;5.00;;;5.00;;
73959;SDS011;62316;48.920;2.342;2023-06-26T05:12:16;2.67;;;2.67;;
73959;SDS011;62316;48.920;2.342;2023-06-26T05:14:41;6.33;;;3.33;;
73959;SDS011;62316;48.920;2.342;2023-06-26T05:17:07;7.33;;;4.33;;
73959;SDS011;62316;48.920;2.342;2023-06-26T05:19:32;6.00;;;3.67;;
73959;SDS011;62316;48.920;2.342;2023-06-26T05:21:58;6.67;;;5.67;;
73959;SDS011;62316;48.920;2.342;2023-06-26T05:24:24;6.00;;;4.00;;
73959;SDS011;62316;48.920;2.342;2023-06-26T05:26:50;5.00;;;5.00;;
73959;SDS011;62316;48.920;2.342;2023-06-26T05:29:16;5.67;;;5.67;;
73959;SDS011;62316;48.920;2.342;2023-06-26T05:31:41;3.33;;;3.00;;
73959;SDS011;62316;48.920;2.342;2023-06-26T05:34:07;4.00;;;4.00;;
73959;SDS011;62316;48.920;2.342;2023-06-26T05:36:35;4.33;;;4.33;;
73959;SDS011;62316;48.920;2.342;2023-06-26T05:39:01;3.00;;;3.00;;
73959;SDS011;62316;48.920;2.342;2023-06-26T05:41:27;3.00;;;3.00;;
73959;SDS011;62316;48.920;2.342;2023-06-26T05:43:52;4.00;;;3.00;;
73959;SDS011;62316;48.920;2.342;2023-06-26T05:46:19;5.00;;;5.00;;
73959;SDS011;62316;48.920;2.342;2023-06-26T05:48:45;5.67;;;5.00;;
73959;SDS011;62316;48.920;2.342;2023-06-26T05:51:10;6.00;;;6.00;;
73959;SDS011;62316;48.920;2.342;2023-06-26T05:53:35;6.67;;;5.67;;
73959;SDS011;62316;48.920;2.342;2023-06-26T05:56:01;7.33;;;7.00;;
73959;SDS011;62316;48.920;2.342;2023-06-26T05:58:27;7.67;;;5.67;;
73959;SDS011;62316;48.920;2.342;2023-06-26T06:00:53;8.33;;;8.33;;
73959;SDS011;62316;48.920;2.342;2023-06-26T06:03:18;7.67;;;6.67;;
73959;SDS011;62316;48.920;2.342;2023-06-26T06:05:43;7.00;;;6.00;;
73959;SDS011;62316;48.920;2.342;2023-06-26T06:08:09;6.33;;;6.33;;
73959;SDS011;62316;48.920;2.342;2023-06-26T06:10:34;8.67;;;7.33;;
73959;SDS011;62316;48.920;2.342;2023-06-26T06:13:00;9.00;;;6.33;;
73959;SDS011;62316;48.920;2.342;2023-06-26T06:15:25;10.67;;;7.00;;
73959;SDS011;62316;48.920;2.342;2023-06-26T06:17:51;8.33;;;5.67;;
73959;SDS011;62316;48.920;2.342;2023-06-26T06:20:16;11.00;;;7.00;;
73959;SDS011;62316;48.920;2.342;2023-06-26T06:22:44;9.67;;;8.33;;
73959;SDS011;62316;48.920;2.342;2023-06-26T06:25:10;9.00;;;7.67;;
73959;SDS011;62316;48.920;2.342;2023-06-26T06:27:35;7.00;;;7.00;;
73959;SDS011;62316;48.920;2.342;2023-06-26T06:30:01;6.67;;;6.67;;
73959;SDS011;62316;48.920;2.342;2023-06-26T06:32:27;7.67;;;6.67;;
73959;SDS011;62316;48.920;2.342;2023-06-26T06:34:53;7.67;;;7.67;;
73959;SDS011;62316;48.920;2.342;2023-06-26T06:37:18;8.33;;;8.33;;
73959;SDS011;62316;48.920;2.342;2023-06-26T06:39:44;7.67;;;6.67;;
73959;SDS011;62316;48.920;2.342;2023-06-26T06:42:09;8.00;;;8.00;;
73959;SDS011;62316;48.920;2.342;2023-06-26T06:44:35;9.33;;;7.67;;
73959;SDS011;62316;48.920;2.342;2023-06-26T06:47:00;9.33;;;8.67;;
73959;SDS011;62316;48.920;2.342;2023-06-26T06:49:25;10.00;;;8.00;;
73959;SDS011;62316;48.920;2.342;2023-06-26T06:51:53;6.00;;;5.00;;
73959;SDS011;62316;48.920;2.342;2023-06-26T06:54:19;13.67;;;12.33;;
73959;SDS011;62316;48.920;2.342;2023-06-26T06:56:44;10.67;;;7.67;;
73959;SDS011;62316;48.920;2.342;2023-06-26T06:59:10;8.00;;;7.00;;
73959;SDS011;62316;48.920;2.342;2023-06-26T07:01:35;7.00;;;6.00;;
73959;SDS011;62316;48.920;2.342;2023-06-26T07:04:00;5.67;;;5.67;;
73959;SDS011;62316;48.920;2.342;2023-06-26T07:06:28;7.33;;;5.00;;
73959;SDS011;62316;48.920;2.342;2023-06-26T07:08:54;6.00;;;6.00;;
73959;SDS011;62316;48.920;2.342;2023-06-26T07:11:19;9.67;;;7.00;;
73959;SDS011;62316;48.920;2.342;2023-06-26T07:13:44;6.00;;;6.00;;
73959;SDS011;62316;48.920;2.342;2023-06-26T07:16:12;9.67;;;8.67;;
73959;SDS011;62316;48.920;2.342;2023-06-26T07:18:40;6.00;;;6.00;;
73959;SDS011;62316;48.920;2.342;2023-06-26T07:21:05;5.67;;;4.33;;
73959;SDS011;62316;48.920;2.342;2023-06-26T07:23:30;8.00;;;7.00;;
73959;SDS011;62316;48.920;2.342;2023-06-26T07:25:56;9.00;;;8.00;;
73959;SDS011;62316;48.920;2.342;2023-06-26T07:28:21;9.00;;;8.00;;
73959;SDS011;62316;48.920;2.342;2023-06-26T07:30:46;9.67;;;8.67;;
73959;SDS011;62316;48.920;2.342;2023-06-26T07:33:12;8.00;;;7.00;;
73959;SDS011;62316;48.920;2.342;2023-06-26T07:35:37;10.33;;;5.67;;
73959;SDS011;62316;48.920;2.342;2023-06-26T07:38:03;6.33;;;6.33;;
73959;SDS011;62316;48.920;2.342;2023-06-26T07:40:28;10.00;;;8.00;;
73959;SDS011;62316;48.920;2.342;2023-06-26T07:42:54;7.67;;;6.33;;
73959;SDS011;62316;48.920;2.342;2023-06-26T07:45:19;9.00;;;7.67;;
73959;SDS011;62316;48.920;2.342;2023-06-26T07:47:45;4.33;;;3.67;;
73959;SDS011;62316;48.920;2.342;2023-06-26T07:50:10;10.00;;;7.67;;
73959;SDS011;62316;48.920;2.342;2023-06-26T07:52:36;7.33;;;7.33;;
73959;SDS011;62316;48.920;2.342;2023-06-26T07:55:01;5.67;;;5.67;;
73959;SDS011;62316;48.920;2.342;2023-06-26T07:57:28;6.67;;;5.33;;
73959;SDS011;62316;48.920;2.342;2023-06-26T07:59:54;5.67;;;5.00;;
73959;SDS011;62316;48.920;2.342;2023-06-26T08:02:21;4.33;;;4.00;;
73959;SDS011;62316;48.920;2.342;2023-06-26T08:04:47;8.00;;;7.00;;
73959;SDS011;62316;48.920;2.342;2023-06-26T08:07:12;7.00;;;6.00;;
73959;SDS011;62316;48.920;2.342;2023-06-26T08:09:39;6.00;;;6.00;;
73959;SDS011;62316;48.920;2.342;2023-06-26T08:12:04;5.00;;;4.00;;
73959;SDS011;62316;48.920;2.342;2023-06-26T08:14:30;6.33;;;5.33;;
73959;SDS011;62316;48.920;2.342;2023-06-26T08:16:56;4.33;;;4.33;;
73959;SDS011;62316;48.920;2.342;2023-06-26T08:19:22;8.00;;;6.33;;
73959;SDS011;62316;48.920;2.342;2023-06-26T08:21:47;5.00;;;4.00;;
73959;SDS011;62316;48.920;2.342;2023-06-26T08:24:13;7.33;;;5.67;;
73959;SDS011;62316;48.920;2.342;2023-06-26T08:26:38;5.67;;;5.67;;
73959;SDS011;62316;48.920;2.342;2023-06-26T08:29:04;5.00;;;4.00;;
73959;SDS011;62316;48.920;2.342;2023-06-26T08:31:36;4.67;;;4.67;;
73959;SDS011;62316;48.920;2.342;2023-06-26T08:34:03;4.67;;;4.00;;
73959;SDS011;62316;48.920;2.342;2023-06-26T08:36:40;4.67;;;3.33;;
73959;SDS011;62316;48.920;2.342;2023-06-26T08:39:05;5.00;;;5.00;;
73959;SDS011;62316;48.920;2.342;2023-06-26T08:41:30;4.33;;;3.67;;
73959;SDS011;62316;48.920;2.342;2023-06-26T08:43:56;3.33;;;3.00;;
73959;SDS011;62316;48.920;2.342;2023-06-26T08:46:25;6.33;;;5.33;;
73959;SDS011;62316;48.920;2.342;2023-06-26T08:48:57;5.00;;;4.33;;
73959;SDS011;62316;48.920;2.342;2023-06-26T08:51:27;6.33;;;4.67;;
73959;SDS011;62316;48.920;2.342;2023-06-26T08:56:32;3.00;;;3.00;;
73959;SDS011;62316;48.920;2.342;2023-06-26T08:59:07;8.00;;;6.00;;
73959;SDS011;62316;48.920;2.342;2023-06-26T09:01:38;5.00;;;5.00;;
73959;SDS011;62316;48.920;2.342;2023-06-26T09:04:06;5.00;;;5.00;;
73959;SDS011;62316;48.920;2.342;2023-06-26T09:06:39;5.67;;;5.67;;
73959;SDS011;62316;48.920;2.342;2023-06-26T09:09:05;6.00;;;6.00;;
73959;SDS011;62316;48.920;2.342;2023-06-26T09:11:39;5.00;;;4.00;;
73959;SDS011;62316;48.920;2.342;2023-06-26T09:14:10;6.00;;;5.00;;
73959;SDS011;62316;48.920;2.342;2023-06-26T09:16:40;3.67;;;2.33;;
73959;SDS011;62316;48.920;2.342;2023-06-26T09:19:09;6.00;;;5.33;;
73959;SDS011;62316;48.920;2.342;2023-06-26T09:21:41;4.67;;;4.67;;
73959;SDS011;62316;48.920;2.342;2023-06-26T09:24:10;5.00;;;4.00;;
73959;SDS011;62316;48.920;2.342;2023-06-26T09:26:39;6.33;;;6.33;;
73959;SDS011;62316;48.920;2.342;2023-06-26T09:29:11;5.00;;;4.00;;
73959;SDS011;62316;48.920;2.342;2023-06-26T09:31:39;6.00;;;3.33;;
73959;SDS011;62316;48.920;2.342;2023-06-26T09:34:08;3.67;;;3.67;;
73959;SDS011;62316;48.920;2.342;2023-06-26T09:36:37;3.00;;;3.00;;
73959;SDS011;62316;48.920;2.342;2023-06-26T09:39:03;5.00;;;5.00;;
73959;SDS011;62316;48.920;2.342;2023-06-26T09:41:43;1.67;;;1.00;;
73959;SDS011;62316;48.920;2.342;2023-06-26T09:44:10;3.33;;;1.67;;
73959;SDS011;62316;48.920;2.342;2023-06-26T09:46:37;4.00;;;3.00;;
73959;SDS011;62316;48.920;2.342;2023-06-26T09:49:10;3.00;;;2.67;;
73959;SDS011;62316;48.920;2.342;2023-06-26T09:51:37;4.33;;;4.33;;
73959;SDS011;62316;48.920;2.342;2023-06-26T09:54:04;0.67;;;0.67;;
73959;SDS011;62316;48.920;2.342;2023-06-26T09:56:33;2.00;;;2.00;;
73959;SDS011;62316;48.920;2.342;2023-06-26T09:58:59;2.33;;;2.33;;
73959;SDS011;62316;48.920;2.342;2023-06-26T10:01:58;4.00;;;4.00;;
73959;SDS011;62316;48.920;2.342;2023-06-26T10:04:24;1.67;;;1.67;;
73959;SDS011;62316;48.920;2.342;2023-06-26T10:06:52;4.33;;;3.00;;
73959;SDS011;62316;48.920;2.342;2023-06-26T10:09:23;4.00;;;3.00;;
73959;SDS011;62316;48.920;2.342;2023-06-26T10:14:38;3.67;;;3.33;;
73959;SDS011;62316;48.920;2.342;2023-06-26T10:17:11;1.00;;;0.00;;
73959;SDS011;62316;48.920;2.342;2023-06-26T10:19:53;4.67;;;4.00;;
73959;SDS011;62316;48.920;2.342;2023-06-26T10:25:39;3.00;;;3.00;;
73959;SDS011;62316;48.920;2.342;2023-06-26T10:28:09;5.00;;;3.00;;
73959;SDS011;62316;48.920;2.342;2023-06-26T10:30:39;2.67;;;2.67;;
73959;SDS011;62316;48.920;2.342;2023-06-26T10:33:08;3.00;;;3.00;;
73959;SDS011;62316;48.920;2.342;2023-06-26T10:35:43;4.67;;;4.00;;
73959;SDS011;62316;48.920;2.342;2023-06-26T10:38:27;3.00;;;3.00;;
73959;SDS011;62316;48.920;2.342;2023-06-26T10:41:40;4.00;;;4.00;;
73959;SDS011;62316;48.920;2.342;2023-06-26T10:44:45;3.00;;;3.00;;
73959;SDS011;62316;48.920;2.342;2023-06-26T10:50:38;3.00;;;3.00;;
73959;SDS011;62316;48.920;2.342;2023-06-26T10:53:23;2.67;;;2.33;;
73959;SDS011;62316;48.920;2.342;2023-06-26T10:55:56;2.67;;;1.67;;
73959;SDS011;62316;48.920;2.342;2023-06-26T11:01:25;4.00;;;4.00;;
73959;SDS011;62316;48.920;2.342;2023-06-26T11:04:03;5.33;;;3.00;;
73959;SDS011;62316;48.920;2.342;2023-06-26T11:06:38;4.33;;;3.00;;
73959;SDS011;62316;48.920;2.342;2023-06-26T11:09:11;4.00;;;4.00;;
73959;SDS011;62316;48.920;2.342;2023-06-26T11:12:08;2.00;;;2.00;;
73959;SDS011;62316;48.920;2.342;2023-06-26T11:14:37;4.67;;;4.33;;
73959;SDS011;62316;48.920;2.342;2023-06-26T11:17:25;4.00;;;4.00;;
73959;SDS011;62316;48.920;2.342;2023-06-26T11:20:11;2.00;;;1.00;;
73959;SDS011;62316;48.920;2.342;2023-06-26T11:22:54;4.33;;;2.33;;
73959;SDS011;62316;48.920;2.342;2023-06-26T11:25:24;4.67;;;3.67;;
73959;SDS011;62316;48.920;2.342;2023-06-26T11:27:53;4.67;;;2.00;;
73959;SDS011;62316;48.920;2.342;2023-06-26T11:30:52;5.00;;;3.33;;
73959;SDS011;62316;48.920;2.342;2023-06-26T11:33:26;2.00;;;2.00;;
73959;SDS011;62316;48.920;2.342;2023-06-26T11:36:24;6.67;;;4.33;;
73959;SDS011;62316;48.920;2.342;2023-06-26T11:38:54;4.00;;;4.00;;
73959;SDS011;62316;48.920;2.342;2023-06-26T11:41:25;2.67;;;2.67;;
73959;SDS011;62316;48.920;2.342;2023-06-26T11:44:10;3.00;;;2.00;;
73959;SDS011;62316;48.920;2.342;2023-06-26T11:46:55;3.00;;;3.00;;
73959;SDS011;62316;48.920;2.342;2023-06-26T11:49:24;2.67;;;2.67;;
73959;SDS011;62316;48.920;2.342;2023-06-26T11:51:54;4.67;;;4.67;;
73959;SDS011;62316;48.920;2.342;2023-06-26T11:54:26;7.00;;;5.00;;
73959;SDS011;62316;48.920;2.342;2023-06-26T11:56:55;4.33;;;4.33;;
73959;SDS011;62316;48.920;2.342;2023-06-26T11:59:22;4.67;;;4.67;;
73959;SDS011;62316;48.920;2.342;2023-06-26T12:01:57;8.67;;;6.00;;
73959;SDS011;62316;48.920;2.342;2023-06-26T12:04:22;4.00;;;4.00;;
73959;SDS011;62316;48.920;2.342;2023-06-26T12:06:49;4.67;;;4.67;;
73959;SDS011;62316;48.920;2.342;2023-06-26T12:09:16;5.00;;;4.00;;
73959;SDS011;62316;48.920;2.342;2023-06-26T12:11:43;4.00;;;4.00;;
73959;SDS011;62316;48.920;2.342;2023-06-26T12:14:10;5.00;;;3.33;;
73959;SDS011;62316;48.920;2.342;2023-06-26T12:16:36;5.33;;;5.33;;
73959;SDS011;62316;48.920;2.342;2023-06-26T12:19:03;7.00;;;4.00;;
73959;SDS011;62316;48.920;2.342;2023-06-26T12:24:01;8.00;;;5.00;;
73959;SDS011;62316;48.920;2.342;2023-06-26T12:26:27;7.00;;;3.33;;
73959;SDS011;62316;48.920;2.342;2023-06-26T12:29:05;5.67;;;4.33;;
73959;SDS011;62316;48.920;2.342;2023-06-26T12:31:31;4.67;;;4.67;;
73959;SDS011;62316;48.920;2.342;2023-06-26T12:33:57;4.00;;;4.00;;
73959;SDS011;62316;48.920;2.342;2023-06-26T12:36:23;4.00;;;4.00;;
73959;SDS011;62316;48.920;2.342;2023-06-26T12:38:52;3.00;;;3.00;;
73959;SDS011;62316;48.920;2.342;2023-06-26T12:41:18;3.33;;;3.33;;
73959;SDS011;62316;48.920;2.342;2023-06-26T12:43:45;5.33;;;5.33;;
73959;SDS011;62316;48.920;2.342;2023-06-26T12:46:10;4.00;;;3.67;;
73959;SDS011;62316;48.920;2.342;2023-06-26T12:48:36;6.00;;;4.00;;
73959;SDS011;62316;48.920;2.342;2023-06-26T12:51:10;5.33;;;5.00;;
73959;SDS011;62316;48.920;2.342;2023-06-26T12:53:35;7.00;;;5.67;;
73959;SDS011;62316;48.920;2.342;2023-06-26T12:56:01;5.00;;;4.00;;
73959;SDS011;62316;48.920;2.342;2023-06-26T12:58:26;5.00;;;5.00;;
73959;SDS011;62316;48.920;2.342;2023-06-26T13:00:52;4.33;;;4.00;;
73959;SDS011;62316;48.920;2.342;2023-06-26T13:03:18;4.00;;;4.00;;
73959;SDS011;62316;48.920;2.342;2023-06-26T13:05:45;4.67;;;4.00;;
73959;SDS011;62316;48.920;2.342;2023-06-26T13:08:11;4.00;;;4.00;;
73959;SDS011;62316;48.920;2.342;2023-06-26T13:10:37;5.00;;;4.00;;
73959;SDS011;62316;48.920;2.342;2023-06-26T13:13:02;2.67;;;2.67;;
73959;SDS011;62316;48.920;2.342;2023-06-26T13:15:27;4.67;;;2.67;;
73959;SDS011;62316;48.920;2.342;2023-06-26T13:17:53;4.33;;;4.00;;
73959;SDS011;62316;48.920;2.342;2023-06-26T13:20:18;6.67;;;4.00;;
73959;SDS011;62316;48.920;2.342;2023-06-26T13:22:44;6.33;;;6.33;;
73959;SDS011;62316;48.920;2.342;2023-06-26T13:25:12;3.00;;;3.00;;
73959;SDS011;62316;48.920;2.342;2023-06-26T13:27:40;4.67;;;4.00;;
73959;SDS011;62316;48.920;2.342;2023-06-26T13:30:07;5.00;;;5.00;;
73959;SDS011;62316;48.920;2.342;2023-06-26T13:32:33;3.33;;;3.33;;
73959;SDS011;62316;48.920;2.342;2023-06-26T13:34:59;4.00;;;4.00;;
73959;SDS011;62316;48.920;2.342;2023-06-26T13:37:24;5.00;;;3.67;;
73959;SDS011;62316;48.920;2.342;2023-06-26T13:39:50;1.00;;;1.00;;
73959;SDS011;62316;48.920;2.342;2023-06-26T13:42:18;3.00;;;3.00;;
73959;SDS011;62316;48.920;2.342;2023-06-26T13:44:43;5.67;;;5.00;;
73959;SDS011;62316;48.920;2.342;2023-06-26T13:47:12;6.33;;;4.33;;
73959;SDS011;62316;48.920;2.342;2023-06-26T13:49:39;7.00;;;3.00;;
73959;SDS011;62316;48.920;2.342;2023-06-26T13:52:05;2.67;;;2.67;;
73959;SDS011;62316;48.920;2.342;2023-06-26T13:54:33;5.00;;;3.00;;
73959;SDS011;62316;48.920;2.342;2023-06-26T13:57:00;3.00;;;3.00;;
73959;SDS011;62316;48.920;2.342;2023-06-26T13:59:27;6.00;;;4.67;;
73959;SDS011;62316;48.920;2.342;2023-06-26T14:01:52;11.33;;;11.33;;
73959;SDS011;62316;48.920;2.342;2023-06-26T14:04:17;3.00;;;3.00;;
73959;SDS011;62316;48.920;2.342;2023-06-26T14:06:43;2.67;;;2.00;;
73959;SDS011;62316;48.920;2.342;2023-06-26T14:09:11;3.00;;;3.00;;
73959;SDS011;62316;48.920;2.342;2023-06-26T14:11:36;4.67;;;3.67;;
73959;SDS011;62316;48.920;2.342;2023-06-26T14:14:02;3.33;;;3.33;;
73959;SDS011;62316;48.920;2.342;2023-06-26T14:16:27;3.33;;;3.33;;
73959;SDS011;62316;48.920;2.342;2023-06-26T14:18:54;4.00;;;3.00;;
73959;SDS011;62316;48.920;2.342;2023-06-26T14:21:22;3.00;;;3.00;;
73959;SDS011;62316;48.920;2.342;2023-06-26T14:23:48;4.33;;;3.00;;
73959;SDS011;62316;48.920;2.342;2023-06-26T14:26:14;5.00;;;3.00;;
73959;SDS011;62316;48.920;2.342;2023-06-26T14:28:39;4.67;;;3.67;;
73959;SDS011;62316;48.920;2.342;2023-06-26T14:31:05;2.67;;;2.00;;
73959;SDS011;62316;48.920;2.342;2023-06-26T14:33:30;4.33;;;3.00;;
73959;SDS011;62316;48.920;2.342;2023-06-26T14:35:56;3.00;;;3.00;;
73959;SDS011;62316;48.920;2.342;2023-06-26T14:38:21;3.33;;;3.33;;
73959;SDS011;62316;48.920;2.342;2023-06-26T14:40:47;5.33;;;3.67;;
73959;SDS011;62316;48.920;2.342;2023-06-26T14:43:12;4.67;;;3.33;;
73959;SDS011;62316;48.920;2.342;2023-06-26T14:45:37;2.67;;;2.67;;
73959;SDS011;62316;48.920;2.342;2023-06-26T14:48:03;5.00;;;5.00;;
73959;SDS011;62316;48.920;2.342;2023-06-26T14:50:28;3.67;;;3.00;;
73959;SDS011;62316;48.920;2.342;2023-06-26T14:52:54;1.33;;;1.33;;
73959;SDS011;62316;48.920;2.342;2023-06-26T14:55:19;6.33;;;6.33;;
73959;SDS011;62316;48.920;2.342;2023-06-26T14:57:49;4.00;;;4.00;;
73959;SDS011;62316;48.920;2.342;2023-06-26T15:00:15;2.33;;;2.33;;
73959;SDS011;62316;48.920;2.342;2023-06-26T15:02:41;3.00;;;3.00;;
73959;SDS011;62316;48.920;2.342;2023-06-26T15:05:07;3.33;;;3.33;;
73959;SDS011;62316;48.920;2.342;2023-06-26T15:07:33;2.33;;;2.33;;
73959;SDS011;62316;48.920;2.342;2023-06-26T15:09:59;7.00;;;5.00;;
73959;SDS011;62316;48.920;2.342;2023-06-26T15:12:34;2.33;;;2.33;;
73959;SDS011;62316;48.920;2.342;2023-06-26T15:15:00;3.00;;;0.00;;